Airfield :
LOGIN :

Register | Disclaimer

   EN    FR    IT 

 










Legend :    VFR   Marginal VFR   IFR   Intensive IFR   Very Intensive IFR
Visi :
Ceiling :
>= 8 km
>= 3000ft
5 to 8 km
1000 to 3000 ft
1500m to 5 km
500 to 1000 ft
800 to 1500m
200 to 500 ft
< 800m
< 200 ft
Symbols :   Thunderstorms  Fog  Heavy snow  Heavy precipitations  Wind > 20 kt
SIGMETs :     Misc.  Thunderstorms  Icing  Turbulence  Mountain Waves  Volcanic Ashes






- Airport Elevation : 598 ft
- IATA code : BQH


EGKB - Biggin Hill

CURRENT METAR :
  • 221450Z 12009KT 9999 BKN009 08/07 Q0995

EXPIRED METARs :
  • 221420Z 12009KT 080V150 9999 BKN010 08/07 Q0995
  • 221350Z 13009KT 080V160 9999 -RA BKN010 08/07 Q0995
  • 221320Z 14009KT 9999 -RA SCT010 08/07 Q0995
  • 221250Z 14010KT 9999 SCT010 08/07 Q0995

TAF AMD TAF EGKB
Valid from the 22 at 15:00 until the 22 at 23:00 UTC


221515Z 2215/2223 13009KT 9999 SCT015
PROB30
TEMPO 2215/2223 12015G25KT
TEMPO 2218/2223 7000 SHRA BKN009



MET'MAP, your aeronautical weather chart ! - Copyright ORBIFLY December 2007 - Disclaimer

ORBIFLY MET'MAP TEAM :

Programming & Development : Alexandra Zaïnal
Concept & Development : Baudouin d'Aumeries
Co-Development & Prog : Marc-Olivier Méhu
Technical & hardware support : Manuel Goepfert

Contact : metmap@orbifly.com




SOURCES & CREDITS :

   NOAA